TimeEDT,TemperatureF,Dew PointF,Humidity,Sea Level PressureIn,VisibilityMPH,Wind Direction,Wind SpeedMPH,Gust SpeedMPH,PrecipitationIn,Events,Conditions,WindDirDegrees,DateUTC
12:56 AM,48.9,46.9,93,30.12,10.0,Calm,Calm,-,N/A,,Clear,0,2013-09-06 04:56:00
1:56 AM,50.0,46.9,89,30.12,10.0,Calm,Calm,-,N/A,,Clear,0,2013-09-06 05:56:00
2:56 AM,51.1,48.9,92,30.13,10.0,Calm,Calm,-,N/A,,Scattered Clouds,0,2013-09-06 06:56:00
3:56 AM,54.0,50.0,86,30.13,10.0,NNE,4.6,-,N/A,,Partly Cloudy,20,2013-09-06 07:56:00
4:56 AM,53.1,50.0,89,30.15,10.0,Calm,Calm,-,N/A,,Partly Cloudy,0,2013-09-06 08:56:00
5:56 AM,51.1,50.0,96,30.17,10.0,Calm,Calm,-,N/A,,Mostly Cloudy,0,2013-09-06 09:56:00
6:56 AM,52.0,50.0,93,30.19,10.0,Calm,Calm,-,0.01,,Clear,0,2013-09-06 10:56:00
7:56 AM,61.0,51.1,70,30.19,10.0,NNE,4.6,-,N/A,,Partly Cloudy,30,2013-09-06 11:56:00
8:56 AM,64.0,46.0,52,30.21,10.0,North,8.1,-,N/A,,Clear,350,2013-09-06 12:56:00
9:56 AM,64.9,45.0,48,30.22,10.0,Variable,5.8,-,N/A,,Clear,0,2013-09-06 13:56:00
10:56 AM,64.9,45.0,48,30.22,10.0,NNE,9.2,-,N/A,,Clear,30,2013-09-06 14:56:00
11:56 AM,66.0,45.0,47,30.21,10.0,North,10.4,-,N/A,,Clear,10,2013-09-06 15:56:00
12:56 PM,66.9,45.0,45,30.20,10.0,NNW,6.9,-,N/A,,Clear,340,2013-09-06 16:56:00
1:56 PM,66.9,46.9,49,30.19,10.0,NNE,8.1,-,N/A,,Clear,30,2013-09-06 17:56:00
2:56 PM,66.9,46.9,49,30.17,10.0,NNE,8.1,-,N/A,,Clear,20,2013-09-06 18:56:00
3:56 PM,64.9,46.9,52,30.16,10.0,Variable,3.5,-,N/A,,Clear,0,2013-09-06 19:56:00
4:56 PM,64.0,48.0,56,30.15,10.0,NNE,4.6,-,N/A,,Scattered Clouds,20,2013-09-06 20:56:00
5:56 PM,63.0,50.0,63,30.14,10.0,ENE,3.5,-,N/A,,Clear,60,2013-09-06 21:56:00
6:56 PM,62.1,50.0,65,30.14,10.0,Calm,Calm,-,N/A,,Clear,0,2013-09-06 22:56:00
7:56 PM,57.0,52.0,83,30.14,10.0,Calm,Calm,-,N/A,,Clear,0,2013-09-06 23:56:00
8:56 PM,53.1,50.0,89,30.14,10.0,Calm,Calm,-,N/A,,Clear,0,2013-09-07 00:56:00
9:56 PM,50.0,48.0,93,30.14,10.0,Calm,Calm,-,N/A,,Clear,0,2013-09-07 01:56:00
10:56 PM,50.0,46.9,89,30.13,10.0,Calm,Calm,-,N/A,,Clear,0,2013-09-07 02:56:00
11:56 PM,48.9,46.0,90,30.11,10.0,Calm,Calm,-,N/A,,Clear,0,2013-09-07 03:56:00